Time;durP1;ratioP1;P1;durP2;ratioP2;P2;SDS_P1;SDS_P2;PMS_P1;PMS_P2;Temp;Humidity;BMP_temperature;BMP_pressure;BME280_temperature;BME280_humidity;BME280_pressure;Samples;Min_cycle;Max_cycle;Signal;HPM_P1;HPM_P2
2022/05/25 00:00:11;;;;;;;;;2.00;2.00;;;;;14.87;63.25;101196.09;5062811;27;45374;-68
2022/05/25 00:02:37;;;;;;;;;2.00;2.00;;;;;14.90;62.62;101198.50;5095710;27;45508;-68
2022/05/25 00:05:05;;;;;;;;;3.00;3.00;;;;;14.86;62.85;101197.09;5083490;27;46018;-68
2022/05/25 00:07:30;;;;;;;;;3.00;3.00;;;;;14.83;63.08;101192.81;5088063;27;45468;-68
2022/05/25 00:09:56;;;;;;;;;2.67;2.67;;;;;14.79;63.36;101191.44;5082851;27;45456;-68
2022/05/25 00:12:21;;;;;;;;;5.00;4.00;;;;;14.75;64.27;101187.34;5078269;27;45519;-68
2022/05/25 00:14:48;;;;;;;;;2.00;1.67;;;;;14.76;64.12;101189.88;5082861;27;45424;-68
2022/05/25 00:17:13;;;;;;;;;4.33;4.33;;;;;14.70;64.60;101193.28;5083693;27;45400;-67
2022/05/25 00:22:22;;;;;;;;;4.00;3.00;;;;;14.68;63.97;101181.63;5084922;27;48145;-68
2022/05/25 00:24:48;;;;;;;;;5.33;3.00;;;;;14.65;64.36;101184.72;5075556;27;47267;-68
2022/05/25 00:27:14;;;;;;;;;3.00;3.00;;;;;14.60;64.93;101189.81;5069681;27;45378;-68
2022/05/25 00:29:39;;;;;;;;;3.00;3.00;;;;;14.59;64.65;101192.72;5078073;27;45336;-68
2022/05/25 00:32:06;;;;;;;;;2.33;2.33;;;;;14.56;64.79;101185.69;5079235;27;45335;-68
2022/05/25 00:34:32;;;;;;;;;5.00;3.33;;;;;14.55;65.18;101199.53;5077101;27;46625;-68
2022/05/25 00:36:58;;;;;;;;;2.00;2.00;;;;;14.55;65.15;101185.84;5065723;28;45311;-68
2022/05/25 00:39:24;;;;;;;;;3.00;3.00;;;;;14.54;65.16;101193.19;5076490;27;45399;-68
2022/05/25 00:41:50;;;;;;;;;6.67;5.00;;;;;14.51;65.17;101187.22;5092598;27;45414;-68
2022/05/25 00:44:16;;;;;;;;;5.00;5.00;;;;;14.53;65.04;101207.03;5088635;27;47733;-68
2022/05/25 00:46:42;;;;;;;;;6.00;4.00;;;;;14.50;65.23;101207.38;5082845;27;45375;-68
2022/05/25 00:49:29;;;;;;;;;4.00;4.00;;;;;14.48;65.31;101203.94;5075028;27;45633;-68
2022/05/25 00:52:05;;;;;;;;;6.00;6.00;;;;;14.47;65.64;101208.53;5085729;27;45455;-68
2022/05/25 00:54:35;;;;;;;;;5.67;5.00;;;;;14.46;65.16;101212.31;5066718;27;45494;-68
2022/05/25 00:57:07;;;;;;;;;10.33;9.67;;;;;14.46;65.86;101215.03;5071968;28;45402;-68
2022/05/25 00:59:41;;;;;;;;;10.67;6.00;;;;;14.43;66.41;101223.56;5065297;27;45231;-68
2022/05/25 01:02:06;;;;;;;;;9.00;7.00;;;;;14.46;65.70;101225.13;5087093;27;45380;-68
2022/05/25 01:04:32;;;;;;;;;10.33;8.33;;;;;14.43;65.83;101222.69;5090463;27;45547;-68
2022/05/25 01:07:22;;;;;;;;;12.67;9.33;;;;;14.40;66.08;101218.41;5078127;28;45414;-68
2022/05/25 01:10:04;;;;;;;;;8.00;7.00;;;;;14.36;66.47;101222.47;5074350;27;45266;-68
2022/05/25 01:12:47;;;;;;;;;10.33;9.33;;;;;14.28;66.69;101223.25;5087601;27;46772;-67
2022/05/25 01:15:50;;;;;;;;;8.00;8.00;;;;;14.28;66.83;101231.47;5078181;27;45621;-68
2022/05/25 01:18:48;;;;;;;;;9.33;8.00;;;;;14.32;66.68;101234.72;5093203;27;45338;-68
2022/05/25 01:21:36;;;;;;;;;11.00;9.67;;;;;14.33;66.85;101236.44;5086316;27;45413;-68
2022/05/25 01:24:24;;;;;;;;;10.67;7.67;;;;;14.16;66.82;101215.50;5072328;28;45487;-67
2022/05/25 01:26:58;;;;;;;;;12.67;8.67;;;;;14.25;66.79;101239.97;5076818;27;48070;-68
2022/05/25 01:29:42;;;;;;;;;7.33;6.00;;;;;14.24;66.24;101235.56;5069103;28;45416;-68
2022/05/25 01:32:14;;;;;;;;;13.00;8.00;;;;;14.24;66.18;101241.00;5082572;27;45325;-68
2022/05/25 01:34:58;;;;;;;;;9.67;9.67;;;;;14.25;66.42;101237.25;5069151;27;45326;-67
2022/05/25 01:37:42;;;;;;;;;10.33;8.67;;;;;14.19;67.34;101242.50;5078272;27;46344;-68
2022/05/25 01:40:17;;;;;;;;;7.67;7.33;;;;;14.18;67.15;101251.69;5079557;27;45772;-67
2022/05/25 01:43:05;;;;;;;;;7.00;7.00;;;;;14.20;67.07;101255.13;5109217;27;45265;-67
2022/05/25 01:45:34;;;;;;;;;8.33;8.33;;;;;14.20;67.13;101257.88;5065604;27;45318;-68
2022/05/25 01:48:05;;;;;;;;;9.33;7.00;;;;;14.20;66.43;101255.13;5089279;27;45424;-68
2022/05/25 01:50:44;;;;;;;;;7.67;6.00;;;;;14.16;66.96;101259.22;5065447;27;45354;-68
2022/05/25 01:53:11;;;;;;;;;8.00;8.00;;;;;14.07;67.73;101247.38;5079721;28;45486;-67
2022/05/25 01:55:46;;;;;;;;;6.00;4.67;;;;;14.01;67.75;101254.34;5085785;27;45234;-68
2022/05/25 01:58:16;;;;;;;;;3.33;3.33;;;;;13.96;68.12;101251.19;5073092;27;45803;-68
2022/05/25 02:00:46;;;;;;;;;6.00;5.67;;;;;14.02;67.88;101256.06;5050000;27;45294;-68
2022/05/25 02:06:17;;;;;;;;;3.67;3.67;;;;;13.96;68.22;101259.38;5076314;27;45482;-68
2022/05/25 02:09:00;;;;;;;;;4.00;4.00;;;;;13.91;68.44;101256.28;5086846;27;45230;-67
2022/05/25 02:11:41;;;;;;;;;2.67;2.67;;;;;13.95;67.91;101257.66;5065693;28;45374;-68
2022/05/25 02:14:31;;;;;;;;;2.00;2.00;;;;;13.99;67.55;101258.22;5073817;28;45303;-68
2022/05/25 02:16:57;;;;;;;;;2.00;2.00;;;;;13.92;68.36;101262.59;5080790;27;45338;-68
2022/05/25 02:19:29;;;;;;;;;3.00;3.00;;;;;13.90;68.05;101268.22;5082060;27;46070;-68
2022/05/25 02:22:10;;;;;;;;;2.00;0.33;;;;;13.83;68.57;101278.06;5081633;27;45282;-67
2022/05/25 02:24:50;;;;;;;;;1.00;1.00;;;;;13.79;69.24;101267.63;5080025;27;45406;-68
2022/05/25 02:27:24;;;;;;;;;2.67;2.67;;;;;13.75;69.34;101272.50;5079141;27;45392;-68
2022/05/25 02:29:56;;;;;;;;;3.00;2.00;;;;;13.70;68.81;101274.88;5074213;27;45429;-68
2022/05/25 02:32:28;;;;;;;;;2.33;2.00;;;;;13.72;69.48;101271.97;5066508;28;45927;-68
2022/05/25 02:34:56;;;;;;;;;2.33;2.33;;;;;13.70;69.28;101261.22;5078062;27;45297;-68
2022/05/25 02:37:25;;;;;;;;;1.00;1.00;;;;;13.73;69.26;101276.44;5079680;27;45288;-68
2022/05/25 02:39:53;;;;;;;;;1.33;1.33;;;;;13.66;69.61;101261.69;5069613;27;45584;-68
2022/05/25 02:42:19;;;;;;;;;3.00;3.00;;;;;13.76;69.28;101279.69;5092062;27;45268;-67
2022/05/25 02:44:45;;;;;;;;;1.67;1.67;;;;;13.71;69.73;101282.03;5077616;27;45376;-67
2022/05/25 02:47:11;;;;;;;;;2.33;2.00;;;;;13.67;69.94;101279.75;5090154;27;45417;-67
2022/05/25 02:49:37;;;;;;;;;2.00;2.00;;;;;13.70;69.66;101296.72;5066165;27;45492;-67
2022/05/25 02:52:04;;;;;;;;;4.00;2.00;;;;;13.63;70.08;101279.22;5088324;27;45499;-67
2022/05/25 02:54:30;;;;;;;;;2.00;1.00;;;;;13.68;69.98;101290.53;5070419;27;45486;-67
2022/05/25 02:56:55;;;;;;;;;2.00;2.00;;;;;13.68;70.14;101296.00;5086995;27;45300;-67
2022/05/25 02:59:20;;;;;;;;;1.67;1.67;;;;;13.63;70.01;101296.47;5070126;27;47028;-67
2022/05/25 03:01:46;;;;;;;;;2.00;2.00;;;;;13.65;70.31;101299.06;5076539;28;45364;-67
2022/05/25 03:04:11;;;;;;;;;4.33;2.00;;;;;13.66;69.66;101308.09;5092390;27;45253;-67
2022/05/25 03:06:37;;;;;;;;;2.00;2.00;;;;;13.59;69.98;101299.66;5081960;27;45781;-67
2022/05/25 03:09:02;;;;;;;;;2.00;2.00;;;;;13.57;70.30;101301.69;5093430;27;45426;-67
2022/05/25 03:11:28;;;;;;;;;1.00;1.00;;;;;13.51;70.29;101302.31;5080724;27;45383;-68
2022/05/25 03:13:53;;;;;;;;;3.67;1.00;;;;;13.49;70.51;101307.06;5086685;27;45579;-68
2022/05/25 03:16:20;;;;;;;;;1.00;1.00;;;;;13.54;70.04;101312.91;5079765;27;45519;-67
2022/05/25 03:18:46;;;;;;;;;3.00;2.00;;;;;13.44;70.61;101312.97;5092814;27;47149;-67
2022/05/25 03:21:12;;;;;;;;;3.00;2.00;;;;;13.42;70.79;101319.63;5086795;27;45538;-67
2022/05/25 03:23:38;;;;;;;;;2.00;2.00;;;;;13.44;71.29;101317.59;5079420;27;45637;-68
2022/05/25 03:26:05;;;;;;;;;0.00;0.00;;;;;13.46;70.71;101313.69;5079755;27;45443;-67
2022/05/25 03:28:30;;;;;;;;;1.67;1.67;;;;;13.47;70.70;101320.88;5082975;27;46194;-67
2022/05/25 03:30:55;;;;;;;;;3.33;3.00;;;;;13.49;70.81;101326.19;5081556;27;45426;-68
2022/05/25 03:33:21;;;;;;;;;3.33;2.00;;;;;13.49;71.12;101331.63;5099089;27;45253;-67
2022/05/25 03:35:46;;;;;;;;;3.00;3.00;;;;;13.44;71.45;101333.97;5075524;27;45517;-67
2022/05/25 03:38:12;;;;;;;;;4.00;2.67;;;;;13.35;71.70;101340.34;5078772;27;46712;-68
2022/05/25 03:40:39;;;;;;;;;8.67;8.67;;;;;13.35;72.34;101340.34;5080204;27;45223;-68
2022/05/25 03:43:13;;;;;;;;;2.00;2.00;;;;;13.41;72.20;101347.91;5090693;27;45539;-68
2022/05/25 03:45:39;;;;;;;;;4.00;4.00;;;;;13.40;71.64;101348.91;5076915;28;45788;-68
2022/05/25 03:48:07;;;;;;;;;4.33;3.00;;;;;13.37;72.04;101360.16;5088033;27;45568;-68
2022/05/25 03:50:34;;;;;;;;;3.00;3.00;;;;;13.31;72.39;101363.47;5069992;27;45377;-67
2022/05/25 03:52:59;;;;;;;;;3.00;3.00;;;;;13.36;72.50;101377.53;5087402;27;45260;-67
2022/05/25 03:55:24;;;;;;;;;4.00;4.00;;;;;13.32;72.73;101379.69;5068220;27;45603;-67
2022/05/25 03:57:50;;;;;;;;;6.00;3.67;;;;;13.31;73.08;101383.44;5086516;27;46702;-68
2022/05/25 04:00:17;;;;;;;;;3.00;3.00;;;;;13.31;72.95;101380.69;5065969;27;45339;-68
2022/05/25 04:02:44;;;;;;;;;4.00;4.00;;;;;13.38;72.44;101384.53;5093748;27;45223;-67
2022/05/25 04:05:10;;;;;;;;;4.33;3.00;;;;;13.36;72.86;101375.69;5082562;27;45500;-68
2022/05/25 04:07:41;;;;;;;;;5.33;4.00;;;;;13.35;72.90;101389.47;5088558;27;45525;-68
2022/05/25 04:10:11;;;;;;;;;3.33;3.33;;;;;13.34;72.38;101374.09;5080110;27;45232;-67
2022/05/25 04:12:37;;;;;;;;;7.67;4.67;;;;;13.40;72.73;101387.13;5091912;27;45319;-68
2022/05/25 04:15:03;;;;;;;;;5.00;3.67;;;;;13.39;72.37;101375.34;5079467;27;45373;-68
2022/05/25 04:17:32;;;;;;;;;6.00;4.33;;;;;13.37;72.88;101377.38;5088452;27;45320;-68
2022/05/25 04:19:57;;;;;;;;;7.00;4.67;;;;;13.38;72.31;101376.34;5077614;27;45460;-68
2022/05/25 04:22:22;;;;;;;;;5.33;4.67;;;;;13.46;71.86;101378.34;5084209;27;45505;-68
2022/05/25 04:24:48;;;;;;;;;3.67;2.67;;;;;13.38;72.41;101383.69;5078830;27;45241;-68
2022/05/25 04:27:13;;;;;;;;;4.00;4.00;;;;;13.35;73.14;101394.94;5080185;27;46684;-68
2022/05/25 04:29:39;;;;;;;;;5.67;5.00;;;;;13.36;73.00;101392.06;5077859;27;45148;-68
2022/05/25 04:32:06;;;;;;;;;4.67;4.67;;;;;13.34;72.92;101394.06;5077272;27;45535;-68
2022/05/25 04:34:32;;;;;;;;;3.67;3.67;;;;;13.44;72.88;101394.84;5082452;28;45433;-68
2022/05/25 04:37:48;;;;;;;;;5.00;5.00;;;;;13.55;73.05;101399.28;5092287;27;46644;-68
2022/05/25 04:39:43;;;;;;;;;3.33;3.33;;;;;13.54;71.99;101394.81;5063493;28;45503;-68
2022/05/25 04:42:09;;;;;;;;;6.33;4.33;;;;;13.57;72.08;101400.00;5090039;27;45398;-70
2022/05/25 04:44:34;;;;;;;;;7.00;7.00;;;;;13.64;72.00;101409.28;5068999;27;45181;-69
2022/05/25 04:46:59;;;;;;;;;5.00;5.00;;;;;13.70;71.43;101400.47;5085783;27;45350;-69
2022/05/25 04:49:26;;;;;;;;;5.67;5.67;;;;;13.70;71.61;101405.94;5068456;27;45843;-69
2022/05/25 04:51:52;;;;;;;;;7.33;5.33;;;;;13.72;71.59;101401.19;5070113;28;45286;-68
2022/05/25 04:54:17;;;;;;;;;5.33;5.33;;;;;13.79;71.59;101405.03;5068499;27;45214;-68
2022/05/25 04:59:26;;;;;;;;;10.67;7.00;;;;;14.19;70.34;101423.72;5091087;27;45353;-68
2022/05/25 05:01:51;;;;;;;;;5.67;4.00;;;;;14.24;69.98;101432.34;5086357;27;45221;-68
2022/05/25 05:04:17;;;;;;;;;7.67;6.00;;;;;14.24;69.77;101426.00;5079469;27;45400;-70
2022/05/25 05:06:44;;;;;;;;;6.00;6.00;;;;;14.24;69.30;101415.94;5078738;27;45243;-69
2022/05/25 05:09:10;;;;;;;;;6.00;6.00;;;;;14.28;69.14;101424.66;5088715;27;45163;-68
2022/05/25 05:11:36;;;;;;;;;5.67;5.67;;;;;14.28;68.42;101435.59;5080532;27;45377;-68
2022/05/25 05:14:02;;;;;;;;;4.67;4.67;;;;;14.27;68.72;101425.69;5087709;27;45633;-67
2022/05/25 05:16:28;;;;;;;;;7.67;6.33;;;;;14.16;68.95;101434.13;5078639;27;46267;-68
2022/05/25 05:18:53;;;;;;;;;9.00;7.67;;;;;14.17;69.07;101444.03;5071989;27;45596;-68
2022/05/25 05:21:18;;;;;;;;;8.33;6.67;;;;;14.15;68.94;101443.31;5075172;27;45523;-68
2022/05/25 05:23:44;;;;;;;;;6.33;6.33;;;;;14.18;68.79;101443.00;5085365;27;45444;-69
2022/05/25 05:26:10;;;;;;;;;13.67;10.00;;;;;14.42;69.29;101446.03;5073273;27;45913;-70
2022/05/25 05:28:38;;;;;;;;;9.00;9.00;;;;;14.89;66.90;101449.34;5079971;27;45199;-67
2022/05/25 05:31:04;;;;;;;;;12.33;9.00;;;;;14.96;66.75;101446.81;5072413;27;45292;-70
2022/05/25 05:33:30;;;;;;;;;6.00;6.00;;;;;14.83;66.27;101449.13;5079466;27;45404;-69
2022/05/25 05:36:05;;;;;;;;;12.00;10.67;;;;;14.78;66.62;101436.78;5079284;27;45468;-68
2022/05/25 05:38:32;;;;;;;;;7.67;7.67;;;;;14.63;66.05;101427.41;5058753;28;45694;-70
2022/05/25 05:40:57;;;;;;;;;8.67;7.00;;;;;14.76;66.36;101424.25;5071569;27;45321;-68
2022/05/25 05:43:23;;;;;;;;;6.67;6.67;;;;;14.97;66.06;101423.94;5089755;27;45437;-68
2022/05/25 05:45:51;;;;;;;;;7.33;6.00;;;;;15.20;64.88;101427.81;5069554;27;45531;-67
2022/05/25 05:48:21;;;;;;;;;4.00;4.00;;;;;15.39;64.18;101416.66;5082833;27;45245;-69
2022/05/25 05:50:50;;;;;;;;;8.67;7.00;;;;;15.56;64.02;101420.38;5064429;27;45391;-69
2022/05/25 05:53:16;;;;;;;;;6.33;6.00;;;;;15.67;64.00;101421.94;5081838;27;45377;-69
2022/05/25 05:55:44;;;;;;;;;7.00;5.00;;;;;15.83;62.85;101417.38;5067517;27;45379;-69
2022/05/25 05:58:10;;;;;;;;;4.00;4.00;;;;;15.95;61.84;101426.13;5071423;27;45336;-69
2022/05/25 06:00:37;;;;;;;;;5.00;5.00;;;;;15.99;62.02;101422.06;5067051;27;45339;-68
2022/05/25 06:03:02;;;;;;;;;3.00;3.00;;;;;16.04;61.24;101414.19;5072159;28;45328;-69
2022/05/25 06:05:28;;;;;;;;;5.67;4.00;;;;;16.13;60.56;101429.63;5070135;27;45615;-68
2022/05/25 06:07:54;;;;;;;;;4.67;4.67;;;;;15.98;60.59;101445.00;5092072;27;45423;-68
2022/05/25 06:10:20;;;;;;;;;5.00;4.67;;;;;15.82;60.32;101447.69;5072988;27;45527;-68
2022/05/25 06:12:47;;;;;;;;;6.00;4.00;;;;;15.90;60.87;101440.34;5085491;27;45617;-68
2022/05/25 06:20:47;;;;;;;;;5.33;5.00;;;;;15.95;59.80;101454.41;5068720;27;45411;-69
2022/05/25 06:23:13;;;;;;;;;10.33;7.67;;;;;15.98;59.72;101466.06;5086805;27;45479;-69
2022/05/25 06:25:38;;;;;;;;;4.00;3.67;;;;;16.01;59.55;101458.34;5063802;27;46999;-69
2022/05/25 06:28:04;;;;;;;;;4.33;4.00;;;;;16.31;58.80;101467.88;5085360;27;45270;-69
2022/05/25 06:30:29;;;;;;;;;3.33;3.33;;;;;16.45;57.28;101478.16;5082406;27;45469;-70
2022/05/25 06:32:54;;;;;;;;;5.33;5.33;;;;;16.62;57.49;101473.59;5080637;27;45243;-69
2022/05/25 06:35:20;;;;;;;;;4.00;3.00;;;;;16.62;57.00;101479.94;5066992;27;46242;-69
2022/05/25 06:37:45;;;;;;;;;4.33;4.33;;;;;16.66;56.86;101485.94;5077393;27;45242;-70
2022/05/25 06:40:11;;;;;;;;;3.00;3.00;;;;;16.78;55.97;101479.13;5067025;27;45504;-72
2022/05/25 06:42:39;;;;;;;;;4.00;3.00;;;;;16.91;55.66;101475.84;5097202;27;45299;-69
2022/05/25 06:45:05;;;;;;;;;3.00;3.00;;;;;16.89;54.65;101497.09;5064630;27;45619;-69
2022/05/25 06:47:32;;;;;;;;;2.67;2.67;;;;;16.80;53.58;101493.53;5093084;27;45409;-69
2022/05/25 06:49:57;;;;;;;;;3.00;3.00;;;;;16.94;53.56;101506.56;5064216;27;45237;-70
2022/05/25 06:52:23;;;;;;;;;9.33;7.00;;;;;16.95;53.97;101500.03;5091163;27;45321;-70
2022/05/25 06:54:55;;;;;;;;;1.00;1.00;;;;;16.98;53.82;101496.94;5064346;27;45338;-69
2022/05/25 06:57:20;;;;;;;;;2.33;2.33;;;;;16.61;53.40;101485.59;5089183;27;46029;-68
2022/05/25 06:59:46;;;;;;;;;3.00;2.00;;;;;16.71;54.17;101516.50;5064219;28;45384;-68
2022/05/25 07:02:11;;;;;;;;;3.00;2.67;;;;;16.56;53.49;101507.19;5086396;27;45579;-68
2022/05/25 07:04:37;;;;;;;;;2.00;2.00;;;;;16.64;53.05;101508.09;5090207;27;45640;-70
2022/05/25 07:07:04;;;;;;;;;2.33;2.33;;;;;16.59;53.20;101507.69;5082153;27;45363;-69
2022/05/25 07:09:30;;;;;;;;;3.00;3.00;;;;;16.82;53.38;101513.41;5087921;27;45548;-68
2022/05/25 07:11:57;;;;;;;;;3.33;2.67;;;;;17.06;52.81;101513.41;5085185;27;45344;-69
2022/05/25 07:14:22;;;;;;;;;3.00;2.00;;;;;16.95;51.82;101511.00;5084285;27;45550;-69
2022/05/25 07:16:47;;;;;;;;;7.00;5.00;;;;;16.86;52.41;101512.06;5069595;28;45329;-68
2022/05/25 07:19:13;;;;;;;;;2.00;2.00;;;;;16.97;51.89;101519.94;5081142;27;45182;-69
2022/05/25 07:21:38;;;;;;;;;4.67;3.33;;;;;16.96;52.72;101520.09;5068047;28;45385;-68
2022/05/25 07:24:03;;;;;;;;;2.67;2.67;;;;;16.82;51.92;101527.13;5079240;27;46411;-69
2022/05/25 07:26:32;;;;;;;;;1.00;1.00;;;;;16.80;51.01;101531.09;5077253;27;45321;-69
2022/05/25 07:28:58;;;;;;;;;1.67;1.67;;;;;17.10;51.80;101539.50;5077394;27;45268;-69
2022/05/25 07:31:51;;;;;;;;;1.00;0.67;;;;;17.31;49.67;101529.91;5077400;27;45475;-69
2022/05/25 07:34:19;;;;;;;;;2.00;0.00;;;;;17.14;49.05;101537.28;5068059;28;46756;-68
2022/05/25 07:36:55;;;;;;;;;2.00;2.00;;;;;17.09;49.42;101536.94;5082888;27;45431;-71
2022/05/25 07:39:26;;;;;;;;;2.00;2.00;;;;;17.03;49.75;101543.09;5071833;27;45284;-69
2022/05/25 07:41:55;;;;;;;;;2.33;1.67;;;;;17.58;49.83;101539.63;5084520;27;45673;-69
2022/05/25 07:44:30;;;;;;;;;5.67;3.00;;;;;17.81;48.68;101540.66;5072618;27;45507;-69
2022/05/25 07:46:56;;;;;;;;;1.00;1.00;;;;;17.93;47.69;101547.47;5084086;27;45281;-68
2022/05/25 07:49:23;;;;;;;;;1.67;1.67;;;;;18.06;47.17;101546.91;5086822;27;45246;-67
2022/05/25 07:51:51;;;;;;;;;2.33;0.00;;;;;18.24;48.07;101547.53;5080832;27;45450;-68
2022/05/25 07:54:16;;;;;;;;;3.00;0.33;;;;;18.49;47.94;101543.59;5070938;27;45401;-68
2022/05/25 07:56:41;;;;;;;;;0.00;0.00;;;;;18.71;47.65;101541.09;5081364;27;45540;-68
2022/05/25 07:59:11;;;;;;;;;1.00;1.00;;;;;18.73;47.26;101555.53;5094963;27;45478;-68
2022/05/25 08:07:38;;;;;;;;;2.00;2.00;;;;;18.16;47.36;101558.56;5051882;28;45310;-67
2022/05/25 08:10:09;;;;;;;;;0.33;0.33;;;;;18.12;46.47;101568.19;5049210;28;45287;-67
2022/05/25 08:12:37;;;;;;;;;1.00;1.00;;;;;18.13;46.84;101551.50;5062406;27;45374;-68
2022/05/25 08:15:03;;;;;;;;;1.00;1.00;;;;;18.17;46.14;101557.53;5076885;27;45630;-68
2022/05/25 08:17:29;;;;;;;;;1.33;1.33;;;;;18.06;46.84;101557.91;5084270;27;45313;-68
2022/05/25 08:19:54;;;;;;;;;1.67;1.67;;;;;17.83;47.41;101563.28;5078468;27;45295;-69
2022/05/25 08:22:19;;;;;;;;;3.00;1.67;;;;;18.26;46.69;101553.72;5082482;27;45367;-68
2022/05/25 08:24:45;;;;;;;;;0.00;0.00;;;;;18.32;45.45;101557.63;5079506;27;46358;-68
2022/05/25 08:27:10;;;;;;;;;2.00;2.00;;;;;18.27;46.37;101548.00;5076176;27;45308;-69
2022/05/25 08:29:35;;;;;;;;;1.67;1.67;;;;;18.32;44.53;101553.00;5078092;27;45255;-68
2022/05/25 08:32:01;;;;;;;;;1.33;0.00;;;;;18.42;43.12;101556.34;5077825;27;45410;-69
2022/05/25 08:34:27;;;;;;;;;1.00;0.00;;;;;18.82;43.18;101547.03;5077653;28;47137;-68
2022/05/25 08:36:53;;;;;;;;;0.00;0.00;;;;;18.94;41.36;101547.47;5075170;27;45396;-68
2022/05/25 08:39:19;;;;;;;;;1.00;0.00;;;;;18.96;40.02;101557.25;5076591;27;45338;-68
2022/05/25 08:41:47;;;;;;;;;0.00;0.00;;;;;19.40;40.05;101557.41;5083839;27;45442;-68
2022/05/25 08:44:14;;;;;;;;;0.00;0.00;;;;;19.58;39.93;101554.31;5076019;27;46367;-68
2022/05/25 08:46:40;;;;;;;;;3.00;1.67;;;;;19.87;39.27;101558.19;5079370;27;45613;-69
2022/05/25 08:49:16;;;;;;;;;0.00;0.00;;;;;19.88;39.32;101551.59;5095307;27;45398;-68
2022/05/25 08:51:46;;;;;;;;;1.33;1.00;;;;;19.98;37.79;101564.06;5083561;27;45408;-68
2022/05/25 08:54:12;;;;;;;;;4.00;1.00;;;;;19.70;37.07;101551.97;5071102;27;45558;-69
2022/05/25 08:56:56;;;;;;;;;1.00;1.00;;;;;19.50;37.78;101551.69;5079766;27;45449;-69
2022/05/25 08:59:51;;;;;;;;;1.33;1.00;;;;;19.40;38.67;101562.94;5067813;27;45469;-69
2022/05/25 09:02:22;;;;;;;;;0.00;0.00;;;;;19.52;37.78;101563.34;5082763;27;45352;-71
2022/05/25 09:05:18;;;;;;;;;2.33;1.33;;;;;19.74;37.39;101578.13;5072824;28;45601;-69
2022/05/25 09:07:56;;;;;;;;;1.00;1.00;;;;;19.75;37.93;101575.19;5056764;27;45751;-69
2022/05/25 09:10:25;;;;;;;;;1.67;1.00;;;;;19.77;38.30;101575.84;5068285;27;45445;-69
2022/05/25 09:13:09;;;;;;;;;1.00;1.00;;;;;19.91;37.29;101576.91;5080203;27;45522;-69
2022/05/25 09:16:15;;;;;;;;;1.00;1.00;;;;;19.95;37.47;101569.97;5069330;27;46326;-69
2022/05/25 09:18:33;;;;;;;;;1.00;1.00;;;;;20.32;38.00;101573.66;5078488;27;45293;-70
2022/05/25 09:21:02;;;;;;;;;0.00;0.00;;;;;20.26;36.91;101552.34;5082647;27;45539;-69
2022/05/25 09:23:28;;;;;;;;;0.33;0.33;;;;;20.24;37.48;101557.22;5076491;27;45519;-69
2022/05/25 09:25:54;;;;;;;;;0.00;0.00;;;;;20.67;36.41;101563.75;5072291;27;45377;-69
2022/05/25 09:28:28;;;;;;;;;0.00;0.00;;;;;20.73;36.30;101563.81;5080643;27;45441;-69
2022/05/25 09:30:56;;;;;;;;;0.00;0.00;;;;;20.69;37.81;101554.19;5071845;27;45299;-70
2022/05/25 09:33:44;;;;;;;;;0.33;0.00;;;;;20.92;37.20;101563.16;5072498;28;45397;-69
2022/05/25 09:36:34;;;;;;;;;0.67;0.67;;;;;21.15;36.75;101562.13;5079584;27;45442;-69
2022/05/25 09:39:14;;;;;;;;;0.33;0.33;;;;;21.06;37.23;101555.88;5078994;27;45356;-69
2022/05/25 09:41:45;;;;;;;;;0.00;0.00;;;;;21.14;35.79;101555.75;5082285;27;45338;-68
2022/05/25 09:44:16;;;;;;;;;2.00;1.00;;;;;20.73;35.70;101552.78;5078454;27;45865;-68
2022/05/25 09:46:47;;;;;;;;;1.00;1.00;;;;;20.89;35.76;101552.50;5077060;28;48356;-70
2022/05/25 09:49:39;;;;;;;;;0.00;0.00;;;;;21.11;35.12;101558.06;5070578;27;45461;-68
2022/05/25 09:52:38;;;;;;;;;0.00;0.00;;;;;20.85;35.60;101576.06;5083697;27;45335;-68
2022/05/25 09:55:18;;;;;;;;;0.00;0.00;;;;;21.13;36.73;101567.84;5060702;28;45374;-68
2022/05/25 09:57:54;;;;;;;;;2.00;2.00;;;;;21.37;36.17;101561.09;5090197;27;45494;-68
2022/05/25 10:00:37;;;;;;;;;2.00;2.00;;;;;21.72;36.28;101571.16;5079234;27;45310;-68
2022/05/25 10:03:11;;;;;;;;;3.00;2.00;;;;;22.04;35.60;101575.25;5093340;27;45229;-68
2022/05/25 10:05:57;;;;;;;;;2.00;1.33;;;;;21.82;34.85;101561.66;5092156;27;45354;-68
2022/05/25 10:08:32;;;;;;;;;0.00;0.00;;;;;21.89;35.55;101570.84;5091665;27;45459;-68
2022/05/25 10:11:09;;;;;;;;;2.00;0.00;;;;;21.73;35.18;101575.63;5072269;27;45384;-69
2022/05/25 10:13:41;;;;;;;;;0.67;0.67;;;;;21.63;35.26;101560.44;5087540;27;45385;-68
2022/05/25 10:16:29;;;;;;;;;0.00;0.00;;;;;22.05;34.39;101581.63;5075674;27;45900;-67
2022/05/25 10:18:59;;;;;;;;;0.00;0.00;;;;;22.63;33.31;101587.69;5080303;27;47164;-69
2022/05/25 10:21:32;;;;;;;;;0.00;0.00;;;;;22.65;32.83;101583.63;5075708;27;45506;-69
2022/05/25 10:23:58;;;;;;;;;0.00;0.00;;;;;22.53;31.98;101579.75;5075915;27;45458;-68
2022/05/25 10:26:34;;;;;;;;;2.33;0.00;;;;;23.08;33.04;101570.38;5074560;27;45559;-69
2022/05/25 10:29:05;;;;;;;;;0.00;0.00;;;;;22.44;33.32;101583.75;5073172;27;47735;-69
2022/05/25 10:37:22;;;;;;;;;0.00;0.00;;;;;22.88;32.84;101583.31;5093532;27;45366;-69
2022/05/25 10:39:54;;;;;;;;;0.00;0.00;;;;;22.88;32.56;101577.75;5078479;28;46522;-68
2022/05/25 10:42:45;;;;;;;;;1.67;1.00;;;;;23.15;32.68;101567.59;5107192;27;45412;-68
2022/05/25 10:45:21;;;;;;;;;0.00;0.00;;;;;23.71;32.37;101564.44;5069860;28;45317;-68
2022/05/25 10:47:50;;;;;;;;;0.00;0.00;;;;;23.74;31.53;101562.09;5086770;27;45321;-68
2022/05/25 10:51:05;;;;;;;;;2.33;2.33;;;;;24.08;32.15;101546.22;5060510;27;47271;-68
2022/05/25 10:54:44;;;;;;;;;0.67;0.67;;;;;24.55;30.17;101556.09;5049367;27;45423;-68
2022/05/25 10:56:34;;;;;;;;;0.00;0.00;;;;;24.12;30.03;101567.78;5081035;27;45574;-68
2022/05/25 10:59:18;;;;;;;;;2.67;2.67;;;;;23.74;30.69;101562.09;5100006;27;45388;-68
2022/05/25 11:01:50;;;;;;;;;0.33;0.33;;;;;23.52;29.70;101563.41;5077752;27;45451;-68
2022/05/25 11:04:24;;;;;;;;;0.00;0.00;;;;;22.96;32.17;101585.88;5089720;27;45486;-68
2022/05/25 11:07:08;;;;;;;;;0.00;0.00;;;;;23.28;31.11;101571.25;5080952;27;45413;-67
2022/05/25 11:09:58;;;;;;;;;1.00;1.00;;;;;23.45;31.44;101568.06;5091293;27;45392;-68
2022/05/25 11:12:32;;;;;;;;;0.00;0.00;;;;;24.18;30.60;101563.28;5067183;27;46776;-65
2022/05/25 11:15:16;;;;;;;;;1.00;1.00;;;;;24.02;30.71;101570.16;5097543;27;45252;-67
2022/05/25 11:18:05;;;;;;;;;0.00;0.00;;;;;22.94;30.08;101582.47;5088405;27;45159;-71
2022/05/25 11:21:01;;;;;;;;;2.00;0.33;;;;;23.59;30.06;101569.78;5071755;27;45334;-70
2022/05/25 11:23:43;;;;;;;;;0.00;0.00;;;;;24.25;29.53;101569.72;5083199;27;45368;-69
2022/05/25 11:26:20;;;;;;;;;0.33;0.33;;;;;24.62;29.69;101557.78;5074743;27;45501;-69
2022/05/25 11:28:48;;;;;;;;;0.33;0.33;;;;;24.50;29.75;101561.47;5092867;27;45408;-69
2022/05/25 11:31:49;;;;;;;;;2.00;0.33;;;;;24.17;29.91;101568.00;5080976;28;45637;-69
2022/05/25 11:34:49;;;;;;;;;1.00;1.00;;;;;23.43;29.97;101570.19;5009497;28;46887;-69
2022/05/25 11:37:30;;;;;;;;;1.67;0.33;;;;;24.10;30.83;101569.06;5111621;27;45438;-69
2022/05/25 11:39:55;;;;;;;;;0.67;0.67;;;;;25.14;29.55;101567.78;5063430;28;45436;-69
2022/05/25 11:43:03;;;;;;;;;0.33;0.00;;;;;25.99;29.58;101557.00;5092282;27;45994;-69
2022/05/25 11:45:53;;;;;;;;;0.00;0.00;;;;;25.74;28.16;101554.25;5075809;27;45686;-70
2022/05/25 11:48:21;;;;;;;;;0.33;0.00;;;;;26.03;27.41;101562.97;5101729;27;45313;-69
2022/05/25 11:51:19;;;;;;;;;1.67;1.67;;;;;25.39;27.84;101551.13;5069526;27;45598;-69
2022/05/25 11:54:09;;;;;;;;;0.00;0.00;;;;;25.71;28.28;101570.59;5073235;27;45385;-70
2022/05/25 11:56:52;;;;;;;;;1.00;1.00;;;;;26.13;27.37;101571.66;5079501;27;45353;-69
2022/05/25 11:59:44;;;;;;;;;0.00;0.00;;;;;25.81;27.95;101554.19;5107250;27;45947;-70
2022/05/25 12:02:26;;;;;;;;;1.33;0.00;;;;;25.46;27.96;101576.97;5087707;27;45266;-68
2022/05/25 12:05:17;;;;;;;;;1.33;0.67;;;;;26.10;28.05;101563.75;5075798;27;45371;-69
2022/05/25 12:08:03;;;;;;;;;0.33;0.33;;;;;25.67;28.81;101563.75;5091840;27;46251;-68
2022/05/25 12:10:40;;;;;;;;;0.00;0.00;;;;;25.49;28.63;101562.59;5091352;27;45365;-69